Time;durP1;ratioP1;P1;durP2;ratioP2;P2;SDS_P1;SDS_P2;PMS_P1;PMS_P2;Temp;Humidity;BMP_temperature;BMP_pressure;BME280_temperature;BME280_humidity;BME280_pressure;Samples;Min_cycle;Max_cycle;Signal;HPM_P1;HPM_P2
2023/07/18 00:00:43;;;;;;;;;;;;;;;28.04;47.95;101968.50;5095060;28;19921;-53
2023/07/18 00:03:09;;;;;;;;;;;;;;;27.75;49.05;101969.28;5094828;28;19917;-53
2023/07/18 00:05:36;;;;;;;;;;;;;;;27.53;49.09;101962.28;5095015;28;19995;-50
2023/07/18 00:08:03;;;;;;;;;;;;;;;28.24;47.53;101962.03;5094671;28;19924;-52
2023/07/18 00:10:28;;;;;;;;;;;;;;;29.57;44.87;101971.84;5094896;28;19970;-49
2023/07/18 00:12:54;;;;;;;;;;;;;;;29.72;43.56;101957.00;5094608;28;19927;-48
2023/07/18 00:15:19;;;;;;;;;;;;;;;30.27;41.99;101960.28;5094752;28;19916;-50
2023/07/18 00:17:44;;;;;;;;;;;;;;;30.45;41.96;101956.63;5099597;28;19916;-51
2023/07/18 00:20:14;;;;;;;;;;;;;;;29.95;43.05;101964.63;5094593;28;19938;-53
2023/07/18 00:22:43;;;;;;;;;;;;;;;29.91;43.03;101958.94;5094921;28;19959;-51
2023/07/18 00:25:10;;;;;;;;;;;;;;;29.41;43.97;101962.16;5099623;28;19923;-53
2023/07/18 00:27:38;;;;;;;;;;;;;;;29.09;45.29;101958.16;5094825;28;19952;-50
2023/07/18 00:30:06;;;;;;;;;;;;;;;29.95;44.37;101961.88;5110797;28;19923;-55
2023/07/18 00:32:33;;;;;;;;;;;;;;;30.32;44.37;101960.19;5095016;28;19928;-53
2023/07/18 00:34:59;;;;;;;;;;;;;;;30.55;43.46;101954.78;5094415;28;19916;-55
2023/07/18 00:37:24;;;;;;;;;;;;;;;30.51;44.71;101957.34;5094353;28;19944;-52
2023/07/18 00:39:51;;;;;;;;;;;;;;;29.85;46.09;101957.34;5114536;28;19916;-55
2023/07/18 00:42:17;;;;;;;;;;;;;;;30.31;45.68;101956.59;5110696;28;19936;-54
2023/07/18 00:44:42;;;;;;;;;;;;;;;29.99;46.62;101954.66;5123339;28;19928;-51
2023/07/18 00:47:08;;;;;;;;;;;;;;;30.24;46.60;101963.66;5098715;28;19991;-48
2023/07/18 00:49:34;;;;;;;;;;;;;;;30.27;47.04;101963.84;5086409;28;19924;-55
2023/07/18 00:52:01;;;;;;;;;;;;;;;30.06;47.74;101966.16;5097398;28;19987;-49
2023/07/18 00:54:27;;;;;;;;;;;;;;;30.27;47.60;101965.81;5107545;28;19924;-53
2023/07/18 00:56:53;;;;;;;;;;;;;;;29.84;48.23;101967.56;5099775;28;19913;-50
2023/07/18 00:59:19;;;;;;;;;;;;;;;29.57;48.10;101962.75;5084224;28;19916;-54
2023/07/18 01:01:46;;;;;;;;;;;;;;;29.57;47.84;101963.59;5125085;28;19912;-54
2023/07/18 01:04:11;;;;;;;;;;;;;;;28.98;49.10;101960.22;5097804;28;19948;-54
2023/07/18 01:06:38;;;;;;;;;;;;;;;29.31;48.11;101952.06;5098316;28;19917;-48
2023/07/18 01:09:05;;;;;;;;;;;;;;;29.15;48.49;101956.97;5114152;28;19921;-50
2023/07/18 01:11:32;;;;;;;;;;;;;;;29.12;49.61;101952.06;5121137;28;19919;-51
2023/07/18 01:13:58;;;;;;;;;;;;;;;29.64;48.33;101956.88;5117741;28;19924;-49
2023/07/18 01:16:24;;;;;;;;;;;;;;;29.61;47.68;101952.75;5097589;28;19939;-48
2023/07/18 01:18:49;;;;;;;;;;;;;;;29.56;48.29;101948.16;5110969;28;19946;-47
2023/07/18 01:21:20;;;;;;;;;;;;;;;29.55;48.07;101951.19;5118622;28;19916;-48
2023/07/18 01:23:45;;;;;;;;;;;;;;;29.68;48.17;101955.97;5080168;28;19917;-47
2023/07/18 01:26:15;;;;;;;;;;;;;;;29.51;49.08;101950.97;5080207;28;19991;-51
2023/07/18 01:28:41;;;;;;;;;;;;;;;29.31;49.94;101952.91;5089514;28;19928;-53
2023/07/18 01:31:06;;;;;;;;;;;;;;;29.08;50.50;101954.56;5113844;28;19917;-53
2023/07/18 01:33:32;;;;;;;;;;;;;;;28.11;55.16;101935.19;5113079;28;19912;-51
2023/07/18 01:35:59;;;;;;;;;;;;;;;28.09;56.67;101934.66;5113839;28;19917;-48
2023/07/18 01:38:31;;;;;;;;;;;;;;;27.20;60.17;101931.66;5113240;28;19916;-51
2023/07/18 01:41:00;;;;;;;;;;;;;;;27.19;62.05;101941.00;5097669;28;19923;-53
2023/07/18 01:43:25;;;;;;;;;;;;;;;27.29;62.62;101937.38;5113500;28;19916;-53
2023/07/18 01:45:51;;;;;;;;;;;;;;;28.09;58.28;101923.66;5097421;28;19923;-49
2023/07/18 01:48:16;;;;;;;;;;;;;;;27.77;59.65;101925.84;5079354;28;20000;-54
2023/07/18 01:50:42;;;;;;;;;;;;;;;27.49;62.26;101933.72;5079888;28;19924;-54
2023/07/18 01:53:08;;;;;;;;;;;;;;;27.48;63.75;101932.88;5097632;28;19916;-49
2023/07/18 01:55:33;;;;;;;;;;;;;;;28.05;59.89;101923.41;5079831;28;19920;-50
2023/07/18 01:57:59;;;;;;;;;;;;;;;27.89;61.13;101915.28;5080337;28;19939;-54
2023/07/18 02:00:24;;;;;;;;;;;;;;;27.79;61.75;101928.28;5116982;28;19916;-53
2023/07/18 02:02:51;;;;;;;;;;;;;;;26.94;65.89;101917.25;5097883;28;19923;-50
2023/07/18 02:05:18;;;;;;;;;;;;;;;27.33;66.11;101917.31;5079498;28;19916;-49
2023/07/18 02:07:44;;;;;;;;;;;;;;;28.01;62.36;101905.88;5096892;28;20050;-49
2023/07/18 02:10:10;;;;;;;;;;;;;;;27.90;62.51;101910.63;5113899;28;19920;-50
2023/07/18 02:12:37;;;;;;;;;;;;;;;28.09;60.62;101907.97;5114018;28;19944;-50
2023/07/18 02:15:05;;;;;;;;;;;;;;;28.32;59.31;101905.59;5089676;28;19916;-50
2023/07/18 02:17:32;;;;;;;;;;;;;;;28.02;60.30;101905.56;5113943;28;19916;-53
2023/07/18 02:19:58;;;;;;;;;;;;;;;27.52;63.35;101905.69;5104496;28;20018;-51
2023/07/18 02:22:24;;;;;;;;;;;;;;;27.57;62.84;101902.91;5109147;28;19921;-49
2023/07/18 02:24:49;;;;;;;;;;;;;;;27.98;61.63;101895.44;5116132;28;19916;-54
2023/07/18 02:27:14;;;;;;;;;;;;;;;27.85;62.78;101892.25;5113306;28;19920;-52
2023/07/18 02:29:40;;;;;;;;;;;;;;;27.56;62.64;101901.28;5096416;28;19917;-50
2023/07/18 02:32:06;;;;;;;;;;;;;;;27.77;61.33;101895.63;5096498;28;19923;-52
2023/07/18 02:34:31;;;;;;;;;;;;;;;28.16;59.63;101892.00;5096573;28;19946;-48
2023/07/18 02:36:57;;;;;;;;;;;;;;;28.55;56.34;101901.22;5096344;28;19917;-52
2023/07/18 02:39:23;;;;;;;;;;;;;;;28.36;56.87;101901.16;5096275;28;19925;-48
2023/07/18 02:41:48;;;;;;;;;;;;;;;27.67;60.23;101902.03;5117745;28;19917;-52
2023/07/18 02:44:14;;;;;;;;;;;;;;;27.18;64.12;101900.91;5098875;28;19924;-49
2023/07/18 02:46:40;;;;;;;;;;;;;;;27.24;63.50;101898.97;5104667;28;19920;-52
2023/07/18 02:49:06;;;;;;;;;;;;;;;26.89;65.01;101894.22;5096319;28;19991;-48
2023/07/18 02:51:31;;;;;;;;;;;;;;;26.90;66.55;101890.38;5114248;28;19917;-49
2023/07/18 02:53:57;;;;;;;;;;;;;;;27.07;66.25;101886.44;5112136;28;20371;-49
2023/07/18 02:56:23;;;;;;;;;;;;;;;27.23;65.02;101897.34;5093482;28;19959;-55
2023/07/18 02:58:49;;;;;;;;;;;;;;;26.97;65.77;101890.03;5078402;28;19917;-49
2023/07/18 03:01:18;;;;;;;;;;;;;;;26.78;67.04;101892.56;5111450;28;19916;-50
2023/07/18 03:03:44;;;;;;;;;;;;;;;27.34;64.65;101893.44;5078483;28;19927;-51
2023/07/18 03:06:09;;;;;;;;;;;;;;;27.47;63.22;101900.22;5094745;28;19916;-50
2023/07/18 03:08:36;;;;;;;;;;;;;;;27.30;64.50;101906.91;5095966;28;19980;-52
2023/07/18 03:11:02;;;;;;;;;;;;;;;26.90;67.34;101889.53;5111518;28;19916;-53
2023/07/18 03:13:27;;;;;;;;;;;;;;;27.00;66.37;101899.66;5077621;28;19920;-55
2023/07/18 03:15:55;;;;;;;;;;;;;;;27.14;65.28;101900.69;5078264;28;19932;-50
2023/07/18 03:18:21;;;;;;;;;;;;;;;26.94;65.98;101901.59;5078627;28;19942;-51
2023/07/18 03:20:46;;;;;;;;;;;;;;;27.24;64.99;101904.47;5098211;28;19916;-54
2023/07/18 03:23:11;;;;;;;;;;;;;;;26.86;65.97;101908.47;5098796;28;19940;-55
2023/07/18 03:25:37;;;;;;;;;;;;;;;27.22;64.37;101909.44;5077769;28;19917;-51
2023/07/18 03:28:02;;;;;;;;;;;;;;;28.17;59.03;101904.66;5095164;28;19948;-52
2023/07/18 03:30:28;;;;;;;;;;;;;;;28.22;57.79;101912.00;5095134;28;19934;-52
2023/07/18 03:32:53;;;;;;;;;;;;;;;28.58;55.38;101908.06;5095674;28;19916;-52
2023/07/18 03:35:19;;;;;;;;;;;;;;;28.77;53.01;101906.19;5101942;28;19917;-53
2023/07/18 03:37:44;;;;;;;;;;;;;;;28.80;52.12;101910.31;5094856;28;19916;-55
2023/07/18 03:40:11;;;;;;;;;;;;;;;29.20;49.68;101910.06;5096034;28;19970;-54
2023/07/18 03:42:36;;;;;;;;;;;;;;;28.43;51.18;101911.81;5095313;28;19922;-53
2023/07/18 03:45:03;;;;;;;;;;;;;;;28.38;51.68;101909.94;5106389;28;19955;-55
2023/07/18 03:47:28;;;;;;;;;;;;;;;28.46;51.88;101901.03;5095088;28;19931;-51
2023/07/18 03:49:53;;;;;;;;;;;;;;;28.59;50.92;101904.19;5094904;28;19916;-52
2023/07/18 03:52:19;;;;;;;;;;;;;;;28.67;50.95;101909.06;5095003;28;19917;-50
2023/07/18 03:54:45;;;;;;;;;;;;;;;28.63;50.41;101903.31;5103183;28;19938;-49
2023/07/18 03:57:12;;;;;;;;;;;;;;;28.93;49.67;101910.69;5095218;28;19924;-49
2023/07/18 03:59:38;;;;;;;;;;;;;;;28.93;49.47;101906.03;5095153;28;19954;-49
2023/07/18 04:02:04;;;;;;;;;;;;;;;28.71;50.11;101898.28;5094969;28;19996;-54
2023/07/18 04:04:30;;;;;;;;;;;;;;;28.67;50.06;101899.97;5094800;28;19916;-48
2023/07/18 04:06:56;;;;;;;;;;;;;;;28.59;49.84;101898.69;5094965;28;20034;-54
2023/07/18 04:09:21;;;;;;;;;;;;;;;28.99;48.22;101901.28;5094630;28;19920;-51
2023/07/18 04:11:47;;;;;;;;;;;;;;;28.52;48.41;101888.06;5094867;28;19928;-55
2023/07/18 04:14:12;;;;;;;;;;;;;;;28.45;48.90;101891.16;5094522;28;19923;-52
2023/07/18 04:16:38;;;;;;;;;;;;;;;28.26;49.08;101885.59;5094825;28;19938;-50
2023/07/18 04:19:04;;;;;;;;;;;;;;;28.49;48.18;101885.91;5094625;28;19921;-53
2023/07/18 04:21:30;;;;;;;;;;;;;;;28.52;47.88;101885.31;5094938;28;19917;-50
2023/07/18 04:23:56;;;;;;;;;;;;;;;28.70;47.63;101880.97;5100230;28;19984;-50
2023/07/18 04:26:22;;;;;;;;;;;;;;;28.66;47.24;101879.09;5103949;28;19916;-48
2023/07/18 04:28:48;;;;;;;;;;;;;;;29.10;46.22;101874.44;5098820;28;19921;-52
2023/07/18 04:31:14;;;;;;;;;;;;;;;28.99;46.53;101874.56;5104792;28;19920;-50
2023/07/18 04:33:40;;;;;;;;;;;;;;;29.07;45.84;101875.84;5098539;28;19916;-53
2023/07/18 04:36:06;;;;;;;;;;;;;;;29.30;45.51;101874.13;5098799;28;19924;-53
2023/07/18 04:38:31;;;;;;;;;;;;;;;29.15;45.30;101877.09;5098449;28;19916;-53
2023/07/18 04:40:57;;;;;;;;;;;;;;;29.03;45.70;101881.09;5098541;28;20118;-51
2023/07/18 04:43:23;;;;;;;;;;;;;;;28.93;46.38;101880.41;5114460;28;19920;-51
2023/07/18 04:45:49;;;;;;;;;;;;;;;29.15;46.38;101888.13;5100640;28;19916;-54
2023/07/18 04:48:15;;;;;;;;;;;;;;;29.23;45.76;101889.41;5101733;28;19920;-53
2023/07/18 04:50:41;;;;;;;;;;;;;;;29.09;45.77;101883.81;5098739;28;19951;-54
2023/07/18 04:53:07;;;;;;;;;;;;;;;29.13;45.41;101879.34;5098376;28;19917;-55
2023/07/18 04:55:34;;;;;;;;;;;;;;;29.39;45.45;101882.50;5097784;28;19913;-51
2023/07/18 04:58:04;;;;;;;;;;;;;;;29.29;45.25;101877.16;5097083;28;19917;-49
2023/07/18 05:00:29;;;;;;;;;;;;;;;29.08;45.46;101882.16;5097677;28;19923;-52
2023/07/18 05:02:55;;;;;;;;;;;;;;;29.69;44.75;101883.19;5100548;28;19995;-54
2023/07/18 05:05:21;;;;;;;;;;;;;;;29.25;45.20;101876.94;5090515;28;19921;-49
2023/07/18 05:07:47;;;;;;;;;;;;;;;28.48;46.77;101878.72;5097461;28;19920;-55
2023/07/18 05:10:13;;;;;;;;;;;;;;;28.69;46.34;101876.56;5099327;28;19917;-53
2023/07/18 05:12:39;;;;;;;;;;;;;;;29.48;44.75;101879.94;5097068;28;19975;-52
2023/07/18 05:15:05;;;;;;;;;;;;;;;29.43;45.12;101882.78;5106224;28;19938;-50
2023/07/18 05:17:31;;;;;;;;;;;;;;;29.29;45.24;101875.22;5097686;28;19951;-51
2023/07/18 05:19:57;;;;;;;;;;;;;;;29.55;44.81;101879.56;5095100;28;20106;-54
2023/07/18 05:22:22;;;;;;;;;;;;;;;30.00;43.83;101879.09;5084627;28;19916;-52
2023/07/18 05:24:47;;;;;;;;;;;;;;;29.58;44.72;101873.44;5097878;28;19916;-53
2023/07/18 05:27:13;;;;;;;;;;;;;;;29.60;44.70;101883.06;5079644;28;19946;-55
2023/07/18 05:29:38;;;;;;;;;;;;;;;29.61;44.66;101879.19;5097720;28;19938;-52
2023/07/18 05:32:05;;;;;;;;;;;;;;;30.10;44.14;101875.34;5097046;28;19916;-53
2023/07/18 05:34:32;;;;;;;;;;;;;;;29.85;44.36;101878.22;5095957;28;19920;-52
2023/07/18 05:36:59;;;;;;;;;;;;;;;29.93;44.59;101884.16;5096623;28;19917;-50
2023/07/18 05:39:24;;;;;;;;;;;;;;;30.10;43.51;101884.44;5097315;28;19923;-48
2023/07/18 05:41:50;;;;;;;;;;;;;;;30.09;44.09;101888.31;5096966;28;19920;-49
2023/07/18 05:44:16;;;;;;;;;;;;;;;29.65;44.12;101889.59;5097381;28;19916;-49
2023/07/18 05:46:42;;;;;;;;;;;;;;;28.79;46.73;101888.56;5097838;28;19916;-48
2023/07/18 05:49:07;;;;;;;;;;;;;;;29.42;45.38;101886.66;5097031;28;19916;-52
2023/07/18 05:51:32;;;;;;;;;;;;;;;29.23;45.45;101890.19;5079645;28;20046;-47
2023/07/18 05:53:57;;;;;;;;;;;;;;;29.67;45.44;101882.69;5096638;28;19938;-54
2023/07/18 05:56:23;;;;;;;;;;;;;;;29.79;45.27;101886.88;5091216;28;19920;-49
2023/07/18 05:58:48;;;;;;;;;;;;;;;29.42;45.81;101892.16;5096600;28;20007;-54
2023/07/18 06:01:14;;;;;;;;;;;;;;;29.18;46.07;101884.78;5092125;28;19943;-54
2023/07/18 06:03:40;;;;;;;;;;;;;;;29.12;46.40;101892.28;5096978;28;19931;-52
2023/07/18 06:06:07;;;;;;;;;;;;;;;29.17;46.01;101886.69;5093332;28;19924;-55
2023/07/18 06:08:32;;;;;;;;;;;;;;;29.35;46.01;101889.75;5096792;28;19921;-51
2023/07/18 06:10:58;;;;;;;;;;;;;;;28.56;48.15;101894.63;5098422;28;19947;-50
2023/07/18 06:13:25;;;;;;;;;;;;;;;29.10;47.39;101893.72;5101672;28;19987;-54
2023/07/18 06:15:50;;;;;;;;;;;;;;;29.39;46.15;101899.03;5095246;28;19923;-54
2023/07/18 06:18:16;;;;;;;;;;;;;;;28.46;48.05;101890.03;5096565;28;19916;-56
2023/07/18 06:20:43;;;;;;;;;;;;;;;29.23;46.34;101890.19;5097728;28;19916;-51
2023/07/18 06:23:09;;;;;;;;;;;;;;;29.41;46.64;101890.53;5099287;28;19915;-53
2023/07/18 06:25:35;;;;;;;;;;;;;;;29.45;45.83;101899.81;5097957;28;19926;-51
2023/07/18 06:28:04;;;;;;;;;;;;;;;29.81;45.75;101899.25;5096241;28;19916;-55
2023/07/18 06:30:30;;;;;;;;;;;;;;;29.68;45.63;101902.78;5097735;28;19928;-53
2023/07/18 06:32:56;;;;;;;;;;;;;;;29.56;46.11;101900.47;5103693;28;19973;-50
2023/07/18 06:35:21;;;;;;;;;;;;;;;29.27;47.29;101899.50;5091248;28;19917;-58
2023/07/18 06:37:47;;;;;;;;;;;;;;;28.86;48.44;101902.81;5096229;28;19917;-54
2023/07/18 06:40:12;;;;;;;;;;;;;;;29.46;46.94;101898.72;5095584;28;19932;-49
2023/07/18 06:42:38;;;;;;;;;;;;;;;29.66;47.06;101894.00;5102473;28;19917;-53
2023/07/18 06:45:04;;;;;;;;;;;;;;;29.44;47.67;101896.25;5098276;28;19920;-53
2023/07/18 06:47:30;;;;;;;;;;;;;;;29.30;47.66;101896.16;5082313;28;19932;-49
2023/07/18 06:49:55;;;;;;;;;;;;;;;28.68;49.62;101894.19;5094472;28;19923;-48
2023/07/18 06:52:21;;;;;;;;;;;;;;;28.96;50.01;101891.66;5095753;28;19920;-52
2023/07/18 06:54:47;;;;;;;;;;;;;;;29.82;48.32;101895.38;5104325;28;19922;-51
2023/07/18 06:57:15;;;;;;;;;;;;;;;29.17;48.12;101891.38;5095793;28;19917;-49
2023/07/18 06:59:41;;;;;;;;;;;;;;;29.00;50.33;101895.47;5095314;28;19923;-53
2023/07/18 07:02:10;;;;;;;;;;;;;;;28.16;53.78;101896.69;5087088;28;19955;-50
2023/07/18 07:04:39;;;;;;;;;;;;;;;28.33;53.36;101896.22;5094224;28;19916;-55
2023/07/18 07:07:05;;;;;;;;;;;;;;;28.23;54.02;101886.16;5094276;28;19923;-51
2023/07/18 07:09:31;;;;;;;;;;;;;;;28.53;54.25;101877.88;5095228;28;19980;-51
2023/07/18 07:11:56;;;;;;;;;;;;;;;28.72;53.78;101891.69;5094392;28;19927;-49
2023/07/18 07:14:22;;;;;;;;;;;;;;;27.86;56.95;101891.13;5093160;28;19921;-49
2023/07/18 07:16:47;;;;;;;;;;;;;;;28.74;54.54;101883.97;5093820;28;19947;-52
2023/07/18 07:19:13;;;;;;;;;;;;;;;28.50;55.24;101886.72;5093201;28;20018;-51
2023/07/18 07:21:39;;;;;;;;;;;;;;;28.45;56.04;101888.41;5093479;28;19947;-50
2023/07/18 07:24:05;;;;;;;;;;;;;;;29.09;54.05;101883.81;5093513;28;20079;-52
2023/07/18 07:26:31;;;;;;;;;;;;;;;28.55;56.28;101881.97;5093534;28;19938;-52
2023/07/18 07:28:57;;;;;;;;;;;;;;;29.57;52.24;101888.34;5094848;28;19924;-52
2023/07/18 07:31:22;;;;;;;;;;;;;;;29.12;53.41;101874.94;5098426;28;19916;-54
2023/07/18 07:33:48;;;;;;;;;;;;;;;29.42;53.06;101884.72;5097012;28;19917;-53
2023/07/18 07:36:15;;;;;;;;;;;;;;;29.12;53.56;101884.00;5101422;28;19992;-49
2023/07/18 07:38:40;;;;;;;;;;;;;;;29.11;52.98;101874.13;5094625;28;19916;-51
2023/07/18 07:41:07;;;;;;;;;;;;;;;29.15;53.03;101866.91;5094828;28;19939;-55
2023/07/18 07:43:32;;;;;;;;;;;;;;;29.59;52.15;101864.88;5094993;28;19916;-56
2023/07/18 07:45:59;;;;;;;;;;;;;;;29.46;52.33;101876.66;5100046;28;19912;-48
2023/07/18 07:48:25;;;;;;;;;;;;;;;30.03;51.00;101864.72;5077338;28;19931;-52
2023/07/18 07:50:51;;;;;;;;;;;;;;;29.56;51.54;101864.66;5094813;28;19939;-50
2023/07/18 07:53:16;;;;;;;;;;;;;;;29.71;50.85;101867.19;5104727;28;19917;-50
2023/07/18 07:55:42;;;;;;;;;;;;;;;29.98;50.52;101867.53;5094410;28;19947;-54
2023/07/18 07:58:07;;;;;;;;;;;;;;;29.77;50.13;101854.13;5094642;28;19938;-50
2023/07/18 08:00:33;;;;;;;;;;;;;;;30.04;49.82;101863.59;5094717;28;19996;-53
2023/07/18 08:02:58;;;;;;;;;;;;;;;29.55;50.82;101854.75;5101943;28;19916;-53
2023/07/18 08:05:24;;;;;;;;;;;;;;;31.17;47.44;101862.41;5094879;28;19922;-52
2023/07/18 08:07:49;;;;;;;;;;;;;;;30.84;47.62;101868.09;5094463;28;19964;-55
2023/07/18 08:10:15;;;;;;;;;;;;;;;30.99;47.35;101856.72;5094724;28;19916;-52
2023/07/18 08:12:41;;;;;;;;;;;;;;;30.01;48.96;101847.63;5094331;28;19916;-52
2023/07/18 08:15:07;;;;;;;;;;;;;;;29.87;47.87;101862.22;5104019;28;19923;-52
2023/07/18 08:17:32;;;;;;;;;;;;;;;30.36;47.10;101852.81;5093984;28;19997;-52
2023/07/18 08:19:58;;;;;;;;;;;;;;;30.22;47.58;101853.59;5094660;28;19980;-49
2023/07/18 08:22:23;;;;;;;;;;;;;;;31.27;45.80;101856.66;5078411;28;19927;-54
2023/07/18 08:24:48;;;;;;;;;;;;;;;30.23;46.78;101854.44;5100657;28;19943;-50
2023/07/18 08:27:14;;;;;;;;;;;;;;;30.16;47.39;101855.63;5095026;28;19932;-49
2023/07/18 08:29:42;;;;;;;;;;;;;;;30.52;46.59;101858.81;5094568;28;19983;-51
2023/07/18 08:32:07;;;;;;;;;;;;;;;30.70;45.72;101860.69;5094337;28;19916;-51
2023/07/18 08:34:34;;;;;;;;;;;;;;;31.19;44.39;101860.16;5094666;28;19920;-53
2023/07/18 08:37:00;;;;;;;;;;;;;;;30.92;43.53;101875.69;5094382;28;19940;-49
2023/07/18 08:39:25;;;;;;;;;;;;;;;30.62;43.83;101861.38;5094403;28;19942;-52
2023/07/18 08:41:52;;;;;;;;;;;;;;;30.90;42.71;101862.16;5094417;28;19924;-50
2023/07/18 08:44:17;;;;;;;;;;;;;;;31.65;42.01;101854.66;5094309;28;19917;-53
2023/07/18 08:46:46;;;;;;;;;;;;;;;32.14;41.64;101852.00;5093624;28;20098;-51
2023/07/18 08:49:16;;;;;;;;;;;;;;;32.11;40.15;101850.69;5094058;28;19987;-51
2023/07/18 08:51:42;;;;;;;;;;;;;;;32.77;39.90;101845.53;5094374;28;19917;-54
2023/07/18 08:54:08;;;;;;;;;;;;;;;32.47;39.56;101846.94;5099301;28;19983;-51
2023/07/18 08:56:33;;;;;;;;;;;;;;;33.21;39.15;101848.34;5105352;28;19920;-50
2023/07/18 08:59:00;;;;;;;;;;;;;;;32.54;38.74;101840.94;5094304;28;20305;-51
2023/07/18 09:01:26;;;;;;;;;;;;;;;32.26;38.56;101846.69;5081144;28;19924;-51
2023/07/18 09:03:51;;;;;;;;;;;;;;;32.81;37.64;101847.31;5093864;28;19916;-52
2023/07/18 09:06:18;;;;;;;;;;;;;;;33.18;38.00;101828.47;5096621;28;19992;-52
2023/07/18 09:08:44;;;;;;;;;;;;;;;34.62;35.65;101851.53;5093926;28;19952;-51
2023/07/18 09:11:12;;;;;;;;;;;;;;;34.12;35.94;101839.19;5093691;28;19924;-52
2023/07/18 09:13:41;;;;;;;;;;;;;;;33.08;36.90;101830.75;5097389;28;19931;-52
2023/07/18 09:16:11;;;;;;;;;;;;;;;33.37;36.44;101832.00;5097531;28;19954;-51
2023/07/18 09:18:38;;;;;;;;;;;;;;;34.10;34.69;101847.84;5097647;28;19916;-53
2023/07/18 09:21:11;;;;;;;;;;;;;;;33.78;35.19;101841.75;5097556;28;19944;-52
2023/07/18 09:23:41;;;;;;;;;;;;;;;34.81;34.70;101841.91;5079799;28;19952;-53
2023/07/18 09:26:10;;;;;;;;;;;;;;;33.79;35.63;101839.78;5097501;28;19917;-51
2023/07/18 09:28:36;;;;;;;;;;;;;;;33.34;35.93;101830.72;5097356;28;19921;-52
2023/07/18 09:31:04;;;;;;;;;;;;;;;33.82;35.69;101828.03;5097219;28;19924;-53
2023/07/18 09:33:31;;;;;;;;;;;;;;;34.79;34.62;101824.75;5103454;28;19917;-51
2023/07/18 09:35:59;;;;;;;;;;;;;;;34.08;34.32;101816.84;5096980;28;19917;-50
2023/07/18 09:38:25;;;;;;;;;;;;;;;33.01;36.02;101826.53;5096985;28;19987;-49
2023/07/18 09:40:51;;;;;;;;;;;;;;;33.08;35.52;101819.66;5097070;28;19939;-50
2023/07/18 09:43:17;;;;;;;;;;;;;;;33.64;35.36;101821.72;5099956;28;19926;-51
2023/07/18 09:45:42;;;;;;;;;;;;;;;33.94;34.30;101830.13;5103678;28;19915;-55
2023/07/18 09:48:09;;;;;;;;;;;;;;;35.41;32.68;101822.28;5098307;28;19927;-49
2023/07/18 09:50:37;;;;;;;;;;;;;;;34.82;33.33;101815.75;5097156;28;19942;-52
2023/07/18 09:53:05;;;;;;;;;;;;;;;35.78;32.81;101819.59;5097182;28;19916;-52
2023/07/18 09:55:31;;;;;;;;;;;;;;;37.22;31.60;101825.22;5097041;28;19919;-54
2023/07/18 09:57:59;;;;;;;;;;;;;;;38.16;30.42;101827.63;5096639;28;19917;-53
2023/07/18 10:00:25;;;;;;;;;;;;;;;36.55;29.42;101820.88;5096844;28;19987;-54
2023/07/18 10:02:52;;;;;;;;;;;;;;;37.60;28.66;101817.47;5099102;28;19928;-53
2023/07/18 10:05:18;;;;;;;;;;;;;;;38.57;27.65;101818.19;5103588;28;19946;-55
2023/07/18 10:07:44;;;;;;;;;;;;;;;39.06;26.72;101824.38;5096716;28;19932;-53
2023/07/18 10:10:10;;;;;;;;;;;;;;;38.39;27.69;101824.16;5096271;28;19917;-51
2023/07/18 10:12:37;;;;;;;;;;;;;;;38.81;27.28;101819.06;5096011;28;19976;-55
2023/07/18 10:15:04;;;;;;;;;;;;;;;39.54;27.06;101818.47;5096698;28;19980;-53
2023/07/18 10:17:34;;;;;;;;;;;;;;;40.85;25.91;101819.25;5109485;28;19916;-55
2023/07/18 10:20:01;;;;;;;;;;;;;;;40.88;24.93;101811.25;5096662;28;19926;-51
2023/07/18 10:22:32;;;;;;;;;;;;;;;40.84;25.34;101800.81;5096314;28;19944;-50
2023/07/18 10:25:05;;;;;;;;;;;;;;;41.19;25.41;101812.81;5096261;28;19927;-51
2023/07/18 10:27:34;;;;;;;;;;;;;;;40.83;26.06;101813.22;5105613;28;19921;-51
2023/07/18 10:30:04;;;;;;;;;;;;;;;42.06;24.41;101812.75;5096056;28;19916;-54
2023/07/18 10:32:31;;;;;;;;;;;;;;;42.18;24.36;101804.03;5096243;28;19944;-52
2023/07/18 10:34:57;;;;;;;;;;;;;;;42.95;23.81;101807.97;5096225;28;19917;-52
2023/07/18 10:37:26;;;;;;;;;;;;;;;42.31;23.83;101795.25;5096029;28;19938;-50
2023/07/18 10:39:53;;;;;;;;;;;;;;;41.07;25.73;101788.63;5096221;28;19917;-54
2023/07/18 10:42:20;;;;;;;;;;;;;;;42.25;25.20;101792.81;5096134;28;19917;-53
2023/07/18 10:44:47;;;;;;;;;;;;;;;42.45;23.61;101792.53;5096119;28;19916;-51
2023/07/18 10:47:12;;;;;;;;;;;;;;;42.52;23.41;101783.34;5099397;28;19928;-50
2023/07/18 10:49:38;;;;;;;;;;;;;;;41.69;23.59;101783.59;5095785;28;19959;-56
2023/07/18 10:52:04;;;;;;;;;;;;;;;42.23;24.73;101780.38;5095651;28;19920;-52
2023/07/18 10:54:30;;;;;;;;;;;;;;;43.90;22.88;101772.25;5095552;28;19923;-53
2023/07/18 10:56:55;;;;;;;;;;;;;;;42.87;24.29;101770.59;5095389;28;19959;-53
2023/07/18 10:59:22;;;;;;;;;;;;;;;43.93;23.02;101779.88;5095105;28;19931;-55
2023/07/18 11:01:47;;;;;;;;;;;;;;;44.91;22.74;101774.66;5095906;28;19920;-54
2023/07/18 11:04:13;;;;;;;;;;;;;;;44.59;22.47;101775.66;5095505;28;19951;-52
2023/07/18 11:06:58;;;;;;;;;;;;;;;43.91;22.08;101777.47;5095637;28;19924;-53
2023/07/18 11:09:24;;;;;;;;;;;;;;;44.34;22.32;101770.09;5095396;28;20015;-53
2023/07/18 11:11:50;;;;;;;;;;;;;;;44.34;22.26;101770.91;5095524;28;19923;-51
2023/07/18 11:14:16;;;;;;;;;;;;;;;44.79;22.19;101766.69;5094547;28;19916;-50
2023/07/18 11:16:41;;;;;;;;;;;;;;;46.94;20.84;101766.06;5095336;28;19921;-52
2023/07/18 11:19:07;;;;;;;;;;;;;;;47.96;19.96;101770.75;5095300;28;19921;-49
2023/07/18 11:21:34;;;;;;;;;;;;;;;48.60;19.82;101781.97;5095355;28;19916;-52
2023/07/18 11:24:01;;;;;;;;;;;;;;;45.88;21.01;101772.25;5094168;28;21480;-53
2023/07/18 11:26:27;;;;;;;;;;;;;;;45.62;21.30;101759.59;5099143;28;19920;-51
2023/07/18 11:28:53;;;;;;;;;;;;;;;43.45;21.75;101761.41;5095663;28;19920;-51
2023/07/18 11:31:23;;;;;;;;;;;;;;;44.28;21.52;101754.84;5095282;28;19923;-52
2023/07/18 11:33:49;;;;;;;;;;;;;;;45.90;20.98;101752.84;5087582;28;19917;-55
2023/07/18 11:36:15;;;;;;;;;;;;;;;47.18;20.31;101752.72;5100770;28;19916;-54
2023/07/18 11:38:40;;;;;;;;;;;;;;;48.30;19.58;101752.66;5095302;28;19974;-54
2023/07/18 11:41:12;;;;;;;;;;;;;;;47.72;19.06;101756.66;5094817;28;19924;-53
2023/07/18 11:43:37;;;;;;;;;;;;;;;48.60;19.08;101767.81;5101062;28;19958;-53
2023/07/18 11:46:03;;;;;;;;;;;;;;;49.15;18.86;101769.38;5100749;28;19917;-51
2023/07/18 11:48:28;;;;;;;;;;;;;;;48.01;19.39;101760.94;5106200;28;20023;-51
2023/07/18 11:50:54;;;;;;;;;;;;;;;47.02;20.67;101744.09;5094952;28;19921;-53
2023/07/18 11:53:26;;;;;;;;;;;;;;;50.08;18.71;101740.47;5094681;28;19924;-53
2023/07/18 11:55:53;;;;;;;;;;;;;;;49.45;18.89;101742.63;5097891;28;19920;-51
2023/07/18 11:58:19;;;;;;;;;;;;;;;47.00;19.44;101747.38;5103060;28;19942;-51
2023/07/18 12:00:46;;;;;;;;;;;;;;;46.74;19.58;101751.81;5094861;28;19917;-49
2023/07/18 12:03:12;;;;;;;;;;;;;;;49.08;17.79;101750.47;5094732;28;19916;-52
2023/07/18 12:05:37;;;;;;;;;;;;;;;50.52;17.64;101727.75;5094919;28;19917;-54
2023/07/18 12:08:03;;;;;;;;;;;;;;;50.12;17.70;101720.44;5094772;28;19920;-53
2023/07/18 12:10:28;;;;;;;;;;;;;;;49.04;17.94;101727.84;5094628;28;19912;-51
2023/07/18 12:12:54;;;;;;;;;;;;;;;50.33;18.14;101718.19;5094661;28;19947;-51
2023/07/18 12:15:19;;;;;;;;;;;;;;;50.03;17.39;101721.09;5105581;28;19922;-55
2023/07/18 12:17:46;;;;;;;;;;;;;;;51.77;17.67;101729.59;5094740;28;19923;-55
2023/07/18 12:20:11;;;;;;;;;;;;;;;51.59;16.91;101726.59;5094678;28;19916;-54
2023/07/18 12:22:37;;;;;;;;;;;;;;;52.65;15.67;101735.53;5094743;28;19923;-55
2023/07/18 12:25:04;;;;;;;;;;;;;;;52.20;15.94;101729.22;5101172;28;19920;-54
2023/07/18 12:27:30;;;;;;;;;;;;;;;49.72;17.39;101718.75;5094273;28;19927;-54
2023/07/18 12:29:55;;;;;;;;;;;;;;;49.55;17.54;101714.38;5109881;28;19942;-54